sensor_id;sensor_type;location;lat;lon;timestamp;pressure;altitude;pressure_sealevel;temperature;humidity
5522;BME280;2783;48.730;8.006;2023-05-11T00:00:24;99952.22;;;15.80;85.06
5522;BME280;2783;48.730;8.006;2023-05-11T00:02:49;99954.63;;;15.85;84.75
5522;BME280;2783;48.730;8.006;2023-05-11T00:05:14;99947.41;;;15.70;82.33
5522;BME280;2783;48.730;8.006;2023-05-11T00:07:39;99949.59;;;15.79;83.74
5522;BME280;2783;48.730;8.006;2023-05-11T00:10:05;99945.44;;;15.73;83.66
5522;BME280;2783;48.730;8.006;2023-05-11T00:12:30;99941.47;;;15.80;83.79
5522;BME280;2783;48.730;8.006;2023-05-11T00:14:55;99944.25;;;15.79;83.28
5522;BME280;2783;48.730;8.006;2023-05-11T00:17:21;99943.38;;;15.78;83.70
5522;BME280;2783;48.730;8.006;2023-05-11T00:19:46;99955.84;;;15.79;84.05
5522;BME280;2783;48.730;8.006;2023-05-11T00:22:11;99942.66;;;15.75;83.61
5522;BME280;2783;48.730;8.006;2023-05-11T00:24:37;99945.59;;;15.70;83.98
5522;BME280;2783;48.730;8.006;2023-05-11T00:27:03;99942.94;;;15.70;84.12
5522;BME280;2783;48.730;8.006;2023-05-11T00:29:28;99945.69;;;15.69;84.27
5522;BME280;2783;48.730;8.006;2023-05-11T00:31:53;99944.06;;;15.66;84.24
5522;BME280;2783;48.730;8.006;2023-05-11T00:34:19;99942.66;;;15.59;83.82
5522;BME280;2783;48.730;8.006;2023-05-11T00:36:44;99957.31;;;15.52;84.15
5522;BME280;2783;48.730;8.006;2023-05-11T00:39:09;99945.97;;;15.47;85.10
5522;BME280;2783;48.730;8.006;2023-05-11T00:41:35;99942.75;;;15.41;85.96
5522;BME280;2783;48.730;8.006;2023-05-11T00:44:01;99946.47;;;15.38;86.21
5522;BME280;2783;48.730;8.006;2023-05-11T00:46:26;99941.22;;;15.35;86.38
5522;BME280;2783;48.730;8.006;2023-05-11T00:48:52;99946.00;;;15.30;87.72
5522;BME280;2783;48.730;8.006;2023-05-11T00:51:17;99946.22;;;15.26;87.17
5522;BME280;2783;48.730;8.006;2023-05-11T00:53:43;99942.06;;;15.20;88.14
5522;BME280;2783;48.730;8.006;2023-05-11T00:56:09;99946.56;;;15.20;87.68
5522;BME280;2783;48.730;8.006;2023-05-11T00:58:34;99940.41;;;15.18;88.69
5522;BME280;2783;48.730;8.006;2023-05-11T01:01:00;99948.53;;;15.16;88.98
5522;BME280;2783;48.730;8.006;2023-05-11T01:03:25;99946.09;;;15.12;89.83
5522;BME280;2783;48.730;8.006;2023-05-11T01:06:11;99947.09;;;15.09;90.16
5522;BME280;2783;48.730;8.006;2023-05-11T01:11:36;99942.44;;;15.13;90.47
5522;BME280;2783;48.730;8.006;2023-05-11T01:14:10;99943.31;;;15.13;90.98
5522;BME280;2783;48.730;8.006;2023-05-11T01:16:37;99938.44;;;15.04;90.62
5522;BME280;2783;48.730;8.006;2023-05-11T01:19:07;99939.63;;;14.99;90.33
5522;BME280;2783;48.730;8.006;2023-05-11T01:21:35;99944.13;;;14.98;90.98
5522;BME280;2783;48.730;8.006;2023-05-11T01:26:33;99946.16;;;14.93;91.83
5522;BME280;2783;48.730;8.006;2023-05-11T01:31:45;99939.22;;;14.89;92.42
5522;BME280;2783;48.730;8.006;2023-05-11T01:34:16;99946.50;;;14.87;92.94
5522;BME280;2783;48.730;8.006;2023-05-11T01:36:43;99942.13;;;14.85;93.70
5522;BME280;2783;48.730;8.006;2023-05-11T01:39:09;99943.97;;;14.84;94.43
5522;BME280;2783;48.730;8.006;2023-05-11T01:41:37;99938.47;;;14.87;94.46
5522;BME280;2783;48.730;8.006;2023-05-11T01:44:04;99937.50;;;14.88;94.53
5522;BME280;2783;48.730;8.006;2023-05-11T01:46:31;99937.34;;;14.91;95.36
5522;BME280;2783;48.730;8.006;2023-05-11T01:48:57;99939.84;;;14.94;95.06
5522;BME280;2783;48.730;8.006;2023-05-11T01:51:24;99937.13;;;14.96;96.08
5522;BME280;2783;48.730;8.006;2023-05-11T01:53:52;99943.25;;;14.98;95.30
5522;BME280;2783;48.730;8.006;2023-05-11T01:56:18;99936.97;;;14.99;95.79
5522;BME280;2783;48.730;8.006;2023-05-11T01:58:44;99946.72;;;15.00;95.04
5522;BME280;2783;48.730;8.006;2023-05-11T02:01:10;99942.41;;;14.97;95.10
5522;BME280;2783;48.730;8.006;2023-05-11T02:03:35;99939.56;;;15.00;95.16
5522;BME280;2783;48.730;8.006;2023-05-11T02:06:03;99934.44;;;14.96;94.26
5522;BME280;2783;48.730;8.006;2023-05-11T02:08:29;99937.13;;;14.96;94.07
5522;BME280;2783;48.730;8.006;2023-05-11T02:10:55;99930.81;;;14.97;94.73
5522;BME280;2783;48.730;8.006;2023-05-11T02:13:22;99937.72;;;15.01;94.73
5522;BME280;2783;48.730;8.006;2023-05-11T02:15:50;99934.19;;;15.00;93.52
5522;BME280;2783;48.730;8.006;2023-05-11T02:18:16;99937.72;;;15.01;94.00
5522;BME280;2783;48.730;8.006;2023-05-11T02:20:42;99940.56;;;14.98;93.29
5522;BME280;2783;48.730;8.006;2023-05-11T02:23:08;99940.34;;;15.02;92.66
5522;BME280;2783;48.730;8.006;2023-05-11T02:25:34;99934.28;;;14.99;92.55
5522;BME280;2783;48.730;8.006;2023-05-11T02:28:00;99937.81;;;14.99;92.06
5522;BME280;2783;48.730;8.006;2023-05-11T02:30:26;99937.13;;;14.96;92.49
5522;BME280;2783;48.730;8.006;2023-05-11T02:32:52;99945.06;;;14.97;92.27
5522;BME280;2783;48.730;8.006;2023-05-11T02:35:30;99941.69;;;14.94;92.24
5522;BME280;2783;48.730;8.006;2023-05-11T02:37:58;99941.69;;;14.94;92.77
5522;BME280;2783;48.730;8.006;2023-05-11T02:40:27;99942.41;;;14.97;92.47
5522;BME280;2783;48.730;8.006;2023-05-11T02:42:54;99937.66;;;15.02;92.11
5522;BME280;2783;48.730;8.006;2023-05-11T02:45:21;99945.53;;;15.05;92.55
5522;BME280;2783;48.730;8.006;2023-05-11T02:47:50;99941.75;;;15.09;91.83
5522;BME280;2783;48.730;8.006;2023-05-11T02:50:17;99946.09;;;15.12;92.52
5522;BME280;2783;48.730;8.006;2023-05-11T02:52:44;99944.25;;;15.12;92.62
5522;BME280;2783;48.730;8.006;2023-05-11T02:55:10;99943.31;;;15.13;92.16
5522;BME280;2783;48.730;8.006;2023-05-11T02:57:37;99940.56;;;15.15;91.44
5522;BME280;2783;48.730;8.006;2023-05-11T03:00:03;99931.72;;;15.13;91.84
5522;BME280;2783;48.730;8.006;2023-05-11T03:02:28;99936.63;;;15.05;91.56
5522;BME280;2783;48.730;8.006;2023-05-11T03:04:54;99939.56;;;15.00;92.66
5522;BME280;2783;48.730;8.006;2023-05-11T03:07:19;99934.44;;;14.96;93.30
5522;BME280;2783;48.730;8.006;2023-05-11T03:09:44;99932.69;;;14.95;94.17
5522;BME280;2783;48.730;8.006;2023-05-11T03:12:10;99939.00;;;14.94;94.25
5522;BME280;2783;48.730;8.006;2023-05-11T03:14:35;99933.88;;;14.89;94.78
5522;BME280;2783;48.730;8.006;2023-05-11T03:17:01;99930.88;;;14.78;95.26
5522;BME280;2783;48.730;8.006;2023-05-11T03:19:27;99928.19;;;14.78;94.50
5522;BME280;2783;48.730;8.006;2023-05-11T03:21:53;99935.84;;;14.69;95.11
5522;BME280;2783;48.730;8.006;2023-05-11T03:24:18;99939.22;;;14.72;95.67
5522;BME280;2783;48.730;8.006;2023-05-11T03:26:44;99931.91;;;14.76;96.04
5522;BME280;2783;48.730;8.006;2023-05-11T03:29:10;99932.75;;;14.76;95.37
5522;BME280;2783;48.730;8.006;2023-05-11T03:31:37;99940.16;;;14.71;95.14
5522;BME280;2783;48.730;8.006;2023-05-11T03:34:02;99929.69;;;14.67;95.47
5522;BME280;2783;48.730;8.006;2023-05-11T03:36:28;99927.09;;;14.65;94.93
5522;BME280;2783;48.730;8.006;2023-05-11T03:38:53;99926.84;;;14.70;95.93
5522;BME280;2783;48.730;8.006;2023-05-11T03:41:20;99924.88;;;14.73;95.43
5522;BME280;2783;48.730;8.006;2023-05-11T03:43:46;99924.59;;;14.79;95.62
5522;BME280;2783;48.730;8.006;2023-05-11T03:46:13;99926.63;;;14.74;95.08
5522;BME280;2783;48.730;8.006;2023-05-11T03:48:41;99929.75;;;14.65;95.80
5522;BME280;2783;48.730;8.006;2023-05-11T03:51:06;99928.50;;;14.55;96.31
5522;BME280;2783;48.730;8.006;2023-05-11T03:53:33;99926.78;;;14.54;96.12
5522;BME280;2783;48.730;8.006;2023-05-11T03:55:59;99921.56;;;14.51;96.08
5522;BME280;2783;48.730;8.006;2023-05-11T03:58:24;99919.81;;;14.50;96.05
5522;BME280;2783;48.730;8.006;2023-05-11T04:00:49;99926.50;;;14.41;95.79
5522;BME280;2783;48.730;8.006;2023-05-11T04:03:15;99915.88;;;14.40;95.97
5522;BME280;2783;48.730;8.006;2023-05-11T04:05:40;99917.38;;;14.45;96.23
5522;BME280;2783;48.730;8.006;2023-05-11T04:08:05;99922.81;;;14.44;95.37
5522;BME280;2783;48.730;8.006;2023-05-11T04:10:31;99919.25;;;14.43;94.97
5522;BME280;2783;48.730;8.006;2023-05-11T04:12:56;99921.94;;;14.43;95.25
5522;BME280;2783;48.730;8.006;2023-05-11T04:15:21;99924.78;;;14.40;95.41
5522;BME280;2783;48.730;8.006;2023-05-11T04:17:47;99927.53;;;14.39;95.65
5522;BME280;2783;48.730;8.006;2023-05-11T04:20:12;99923.13;;;14.38;95.50
5522;BME280;2783;48.730;8.006;2023-05-11T04:22:37;99921.31;;;14.38;96.28
5522;BME280;2783;48.730;8.006;2023-05-11T04:25:03;99925.66;;;14.41;95.96
5522;BME280;2783;48.730;8.006;2023-05-11T04:27:31;99925.56;;;14.42;96.24
5522;BME280;2783;48.730;8.006;2023-05-11T04:29:56;99927.59;;;14.37;96.16
5522;BME280;2783;48.730;8.006;2023-05-11T04:32:21;99918.53;;;14.40;97.07
5522;BME280;2783;48.730;8.006;2023-05-11T04:34:47;99927.44;;;14.40;96.70
5522;BME280;2783;48.730;8.006;2023-05-11T04:37:12;99927.38;;;14.42;96.24
5522;BME280;2783;48.730;8.006;2023-05-11T04:39:38;99924.53;;;14.45;97.27
5522;BME280;2783;48.730;8.006;2023-05-11T04:42:03;99922.66;;;14.47;97.21
5522;BME280;2783;48.730;8.006;2023-05-11T04:44:28;99923.38;;;14.50;96.87
5522;BME280;2783;48.730;8.006;2023-05-11T04:46:54;99926.84;;;14.52;97.08
5522;BME280;2783;48.730;8.006;2023-05-11T04:49:19;99926.06;;;14.50;96.59
5522;BME280;2783;48.730;8.006;2023-05-11T04:51:44;99935.72;;;14.53;97.07
5522;BME280;2783;48.730;8.006;2023-05-11T04:54:10;99934.16;;;14.49;96.22
5522;BME280;2783;48.730;8.006;2023-05-11T04:56:35;99934.31;;;14.46;96.63
5522;BME280;2783;48.730;8.006;2023-05-11T04:59:04;99937.63;;;14.51;97.06
5522;BME280;2783;48.730;8.006;2023-05-11T05:01:30;99931.97;;;14.57;96.34
5522;BME280;2783;48.730;8.006;2023-05-11T05:03:55;99931.66;;;14.63;96.31
5522;BME280;2783;48.730;8.006;2023-05-11T05:06:20;99933.16;;;14.69;96.36
5522;BME280;2783;48.730;8.006;2023-05-11T05:08:45;99932.00;;;14.74;96.24
5522;BME280;2783;48.730;8.006;2023-05-11T05:11:11;99938.09;;;14.76;96.34
5522;BME280;2783;48.730;8.006;2023-05-11T05:13:36;99937.81;;;14.82;95.90
5522;BME280;2783;48.730;8.006;2023-05-11T05:16:01;99945.22;;;14.77;94.38
5522;BME280;2783;48.730;8.006;2023-05-11T05:18:27;99943.19;;;14.82;94.57
5522;BME280;2783;48.730;8.006;2023-05-11T05:20:52;99940.00;;;14.91;94.86
5522;BME280;2783;48.730;8.006;2023-05-11T05:23:17;99949.94;;;14.89;93.55
5522;BME280;2783;48.730;8.006;2023-05-11T05:25:42;99946.50;;;14.87;93.55
5522;BME280;2783;48.730;8.006;2023-05-11T05:28:08;99950.81;;;14.90;93.15
5522;BME280;2783;48.730;8.006;2023-05-11T05:30:33;99949.72;;;14.94;93.58
5522;BME280;2783;48.730;8.006;2023-05-11T05:33:00;99958.16;;;15.03;93.87
5522;BME280;2783;48.730;8.006;2023-05-11T05:35:25;99946.47;;;15.04;93.41
5522;BME280;2783;48.730;8.006;2023-05-11T05:37:50;99947.88;;;15.11;92.97
5522;BME280;2783;48.730;8.006;2023-05-11T05:40:16;99946.25;;;15.09;92.27
5522;BME280;2783;48.730;8.006;2023-05-11T05:42:41;99950.56;;;15.11;92.63
5522;BME280;2783;48.730;8.006;2023-05-11T05:45:06;99957.66;;;15.12;91.76
5522;BME280;2783;48.730;8.006;2023-05-11T05:47:32;99951.69;;;15.07;91.82
5522;BME280;2783;48.730;8.006;2023-05-11T05:49:57;99955.22;;;15.08;91.83
5522;BME280;2783;48.730;8.006;2023-05-11T05:52:22;99957.59;;;15.14;91.11
5522;BME280;2783;48.730;8.006;2023-05-11T05:54:47;99959.06;;;15.19;91.29
5522;BME280;2783;48.730;8.006;2023-05-11T05:57:13;99958.81;;;15.24;91.29
5522;BME280;2783;48.730;8.006;2023-05-11T05:59:38;99958.78;;;15.25;90.93
5522;BME280;2783;48.730;8.006;2023-05-11T06:02:03;99959.16;;;15.35;91.22
5522;BME280;2783;48.730;8.006;2023-05-11T06:04:30;99965.09;;;15.41;90.22
5522;BME280;2783;48.730;8.006;2023-05-11T06:06:55;99959.22;;;15.50;91.21
5522;BME280;2783;48.730;8.006;2023-05-11T06:09:21;99955.09;;;15.60;90.52
5522;BME280;2783;48.730;8.006;2023-05-11T06:11:47;99961.41;;;15.59;89.34
5522;BME280;2783;48.730;8.006;2023-05-11T06:14:12;99958.94;;;15.39;86.98
5522;BME280;2783;48.730;8.006;2023-05-11T06:16:37;99962.59;;;15.54;88.84
5522;BME280;2783;48.730;8.006;2023-05-11T06:19:03;99960.28;;;15.63;88.09
5522;BME280;2783;48.730;8.006;2023-05-11T06:21:28;99962.31;;;15.75;86.83
5522;BME280;2783;48.730;8.006;2023-05-11T06:23:53;99965.53;;;15.82;86.74
5522;BME280;2783;48.730;8.006;2023-05-11T06:26:18;99964.75;;;15.80;85.58
5522;BME280;2783;48.730;8.006;2023-05-11T06:28:45;99963.28;;;15.90;85.97
5522;BME280;2783;48.730;8.006;2023-05-11T06:31:10;99978.53;;;15.90;86.61
5522;BME280;2783;48.730;8.006;2023-05-11T06:33:35;99968.69;;;16.06;85.96
5522;BME280;2783;48.730;8.006;2023-05-11T06:36:04;99972.84;;;16.27;84.91
5522;BME280;2783;48.730;8.006;2023-05-11T06:38:29;99966.38;;;16.31;84.29
5522;BME280;2783;48.730;8.006;2023-05-11T06:40:55;99960.56;;;16.38;82.70
5522;BME280;2783;48.730;8.006;2023-05-11T06:43:20;99971.81;;;16.45;82.97
5522;BME280;2783;48.730;8.006;2023-05-11T06:45:45;99973.13;;;16.53;82.35
5522;BME280;2783;48.730;8.006;2023-05-11T06:48:11;99960.59;;;16.54;82.60
5522;BME280;2783;48.730;8.006;2023-05-11T06:50:36;99971.31;;;16.54;82.38
5522;BME280;2783;48.730;8.006;2023-05-11T06:53:02;99968.19;;;16.61;82.67
5522;BME280;2783;48.730;8.006;2023-05-11T06:55:27;99969.22;;;16.43;80.98
5522;BME280;2783;48.730;8.006;2023-05-11T06:57:52;99970.78;;;16.32;81.48
5522;BME280;2783;48.730;8.006;2023-05-11T07:00:17;99967.75;;;16.22;82.73
5522;BME280;2783;48.730;8.006;2023-05-11T07:02:43;99964.00;;;16.25;84.00
5522;BME280;2783;48.730;8.006;2023-05-11T07:05:08;99970.94;;;16.29;84.53
5522;BME280;2783;48.730;8.006;2023-05-11T07:07:33;99975.00;;;16.20;84.17
5522;BME280;2783;48.730;8.006;2023-05-11T07:09:58;99963.94;;;16.11;83.20
5522;BME280;2783;48.730;8.006;2023-05-11T07:12:24;99965.91;;;16.07;84.24
5522;BME280;2783;48.730;8.006;2023-05-11T07:14:49;99967.91;;;16.04;84.40
5522;BME280;2783;48.730;8.006;2023-05-11T07:17:15;99963.31;;;16.06;83.82
5522;BME280;2783;48.730;8.006;2023-05-11T07:19:40;99967.06;;;16.19;84.29
5522;BME280;2783;48.730;8.006;2023-05-11T07:22:05;99960.41;;;16.26;84.30
5522;BME280;2783;48.730;8.006;2023-05-11T07:24:30;99963.69;;;16.31;84.09
5522;BME280;2783;48.730;8.006;2023-05-11T07:26:56;99968.34;;;16.43;83.56
5522;BME280;2783;48.730;8.006;2023-05-11T07:29:21;99968.34;;;16.43;83.12
5522;BME280;2783;48.730;8.006;2023-05-11T07:31:46;99963.81;;;16.28;81.61
5522;BME280;2783;48.730;8.006;2023-05-11T07:34:12;99971.97;;;16.11;82.60
5522;BME280;2783;48.730;8.006;2023-05-11T07:36:37;99970.66;;;16.18;82.44
5522;BME280;2783;48.730;8.006;2023-05-11T07:39:02;99972.16;;;16.39;83.75
5522;BME280;2783;48.730;8.006;2023-05-11T07:41:28;99968.56;;;16.55;83.42
5522;BME280;2783;48.730;8.006;2023-05-11T07:43:53;99977.34;;;16.57;80.55
5522;BME280;2783;48.730;8.006;2023-05-11T07:46:18;99973.88;;;16.71;81.34
5522;BME280;2783;48.730;8.006;2023-05-11T07:48:44;99970.34;;;16.70;81.81
5522;BME280;2783;48.730;8.006;2023-05-11T07:51:10;99982.44;;;16.77;81.33
5522;BME280;2783;48.730;8.006;2023-05-11T07:53:35;99970.06;;;16.75;81.73
5522;BME280;2783;48.730;8.006;2023-05-11T07:56:00;99968.19;;;16.77;81.74
5522;BME280;2783;48.730;8.006;2023-05-11T07:58:27;99979.25;;;16.71;81.95
5522;BME280;2783;48.730;8.006;2023-05-11T08:00:53;99973.91;;;16.55;81.81
5522;BME280;2783;48.730;8.006;2023-05-11T08:03:18;99974.06;;;16.68;82.54
5522;BME280;2783;48.730;8.006;2023-05-11T08:05:43;99978.91;;;16.77;82.51
5522;BME280;2783;48.730;8.006;2023-05-11T08:08:08;99971.78;;;16.76;82.37
5522;BME280;2783;48.730;8.006;2023-05-11T08:10:34;99972.47;;;16.79;82.19
5522;BME280;2783;48.730;8.006;2023-05-11T08:13:00;99980.41;;;16.67;80.86
5522;BME280;2783;48.730;8.006;2023-05-11T08:15:25;99976.03;;;16.80;80.93
5522;BME280;2783;48.730;8.006;2023-05-11T08:17:51;99985.31;;;16.90;80.91
5522;BME280;2783;48.730;8.006;2023-05-11T08:20:16;99976.25;;;17.06;81.10
5522;BME280;2783;48.730;8.006;2023-05-11T08:22:41;99976.41;;;17.03;79.19
5522;BME280;2783;48.730;8.006;2023-05-11T08:25:07;99980.88;;;16.89;79.08
5522;BME280;2783;48.730;8.006;2023-05-11T08:27:32;99974.56;;;16.90;79.70
5522;BME280;2783;48.730;8.006;2023-05-11T08:29:57;99978.44;;;17.00;79.62
5522;BME280;2783;48.730;8.006;2023-05-11T08:32:22;99975.66;;;17.01;79.47
5522;BME280;2783;48.730;8.006;2023-05-11T08:34:48;99974.69;;;17.02;78.76
5522;BME280;2783;48.730;8.006;2023-05-11T08:37:13;99973.63;;;17.05;79.90
5522;BME280;2783;48.730;8.006;2023-05-11T08:39:38;99983.03;;;16.98;80.47
5522;BME280;2783;48.730;8.006;2023-05-11T08:42:04;99979.78;;;17.07;80.47
5522;BME280;2783;48.730;8.006;2023-05-11T08:44:33;99982.66;;;17.04;79.72
5522;BME280;2783;48.730;8.006;2023-05-11T08:46:59;99978.84;;;17.08;80.10
5522;BME280;2783;48.730;8.006;2023-05-11T08:49:25;99982.47;;;17.07;78.63
5522;BME280;2783;48.730;8.006;2023-05-11T08:51:50;99988.44;;;17.12;79.11
5522;BME280;2783;48.730;8.006;2023-05-11T08:54:16;99980.38;;;17.12;78.48
5522;BME280;2783;48.730;8.006;2023-05-11T08:56:41;99985.97;;;16.93;77.74
5522;BME280;2783;48.730;8.006;2023-05-11T08:59:07;99991.00;;;16.99;77.83
5522;BME280;2783;48.730;8.006;2023-05-11T09:01:33;99983.97;;;16.97;78.16
5522;BME280;2783;48.730;8.006;2023-05-11T09:03:59;99981.13;;;17.00;78.85
5522;BME280;2783;48.730;8.006;2023-05-11T09:06:24;99983.94;;;17.13;79.77
5522;BME280;2783;48.730;8.006;2023-05-11T09:08:50;99977.81;;;17.25;79.32
5522;BME280;2783;48.730;8.006;2023-05-11T09:11:16;99986.19;;;17.34;79.67
5522;BME280;2783;48.730;8.006;2023-05-11T09:13:42;99982.34;;;17.38;78.11
5522;BME280;2783;48.730;8.006;2023-05-11T09:16:07;99975.72;;;17.59;77.64
5522;BME280;2783;48.730;8.006;2023-05-11T09:18:32;99976.78;;;17.71;77.22
5522;BME280;2783;48.730;8.006;2023-05-11T09:20:59;99980.72;;;17.93;76.51
5522;BME280;2783;48.730;8.006;2023-05-11T09:23:25;99976.84;;;18.11;74.37
5522;BME280;2783;48.730;8.006;2023-05-11T09:25:50;99974.91;;;18.27;73.91
5522;BME280;2783;48.730;8.006;2023-05-11T09:28:19;99979.03;;;18.33;73.09
5522;BME280;2783;48.730;8.006;2023-05-11T09:30:44;99966.84;;;18.42;72.73
5522;BME280;2783;48.730;8.006;2023-05-11T09:33:10;99971.41;;;18.54;73.35
5522;BME280;2783;48.730;8.006;2023-05-11T09:35:35;99972.06;;;18.84;73.28
5522;BME280;2783;48.730;8.006;2023-05-11T09:38:19;99969.66;;;19.06;70.91
5522;BME280;2783;48.730;8.006;2023-05-11T09:40:52;99975.47;;;19.51;68.04
5522;BME280;2783;48.730;8.006;2023-05-11T09:43:19;99966.19;;;19.81;63.97
5522;BME280;2783;48.730;8.006;2023-05-11T09:45:48;99959.06;;;20.17;61.97
5522;BME280;2783;48.730;8.006;2023-05-11T09:50:48;99952.16;;;20.97;62.17
5522;BME280;2783;48.730;8.006;2023-05-11T09:53:14;99957.22;;;21.25;61.67
5522;BME280;2783;48.730;8.006;2023-05-11T09:55:53;99958.22;;;21.35;59.67
5522;BME280;2783;48.730;8.006;2023-05-11T09:58:18;99953.78;;;20.99;57.32
5522;BME280;2783;48.730;8.006;2023-05-11T10:00:52;99960.94;;;20.87;60.77
5522;BME280;2783;48.730;8.006;2023-05-11T10:03:18;99960.22;;;20.85;62.58
5522;BME280;2783;48.730;8.006;2023-05-11T10:05:56;99949.41;;;20.85;59.80
5522;BME280;2783;48.730;8.006;2023-05-11T10:08:29;99948.25;;;20.77;60.04
5522;BME280;2783;48.730;8.006;2023-05-11T10:10:54;99945.16;;;20.70;60.38
5522;BME280;2783;48.730;8.006;2023-05-11T10:13:20;99941.94;;;20.65;61.79
5522;BME280;2783;48.730;8.006;2023-05-11T10:15:46;99944.75;;;20.64;60.24
5522;BME280;2783;48.730;8.006;2023-05-11T10:18:15;99945.38;;;20.44;59.85
5522;BME280;2783;48.730;8.006;2023-05-11T10:20:40;99943.31;;;20.47;61.08
5522;BME280;2783;48.730;8.006;2023-05-11T10:23:06;99937.69;;;20.38;60.03
5522;BME280;2783;48.730;8.006;2023-05-11T10:25:32;99943.78;;;20.29;61.06
5522;BME280;2783;48.730;8.006;2023-05-11T10:27:57;99939.25;;;20.29;61.83
5522;BME280;2783;48.730;8.006;2023-05-11T10:30:23;99948.09;;;20.31;61.68
5522;BME280;2783;48.730;8.006;2023-05-11T10:32:48;99941.56;;;20.46;61.00
5522;BME280;2783;48.730;8.006;2023-05-11T10:35:15;99937.03;;;20.70;62.48
5522;BME280;2783;48.730;8.006;2023-05-11T10:37:40;99939.94;;;20.67;58.29
5522;BME280;2783;48.730;8.006;2023-05-11T10:40:10;99936.53;;;20.65;59.78
5522;BME280;2783;48.730;8.006;2023-05-11T10:47:39;99925.56;;;20.90;56.75
5522;BME280;2783;48.730;8.006;2023-05-11T10:55:28;99928.66;;;21.21;55.86
5522;BME280;2783;48.730;8.006;2023-05-11T10:58:06;99925.75;;;21.35;55.38
5522;BME280;2783;48.730;8.006;2023-05-11T11:03:11;99930.16;;;21.25;57.57
5522;BME280;2783;48.730;8.006;2023-05-11T11:05:37;99927.50;;;21.12;54.81
5522;BME280;2783;48.730;8.006;2023-05-11T11:08:03;99923.84;;;21.13;55.30
5522;BME280;2783;48.730;8.006;2023-05-11T11:10:32;99919.28;;;21.14;56.76
5522;BME280;2783;48.730;8.006;2023-05-11T11:13:01;99925.00;;;21.22;58.10
5522;BME280;2783;48.730;8.006;2023-05-11T11:15:57;99922.06;;;21.47;54.85
5522;BME280;2783;48.730;8.006;2023-05-11T11:18:19;99913.28;;;22.00;51.69
5522;BME280;2783;48.730;8.006;2023-05-11T11:20:48;99913.31;;;22.54;52.35
5522;BME280;2783;48.730;8.006;2023-05-11T11:25:57;99918.59;;;23.18;50.98
5522;BME280;2783;48.730;8.006;2023-05-11T11:28:23;99909.50;;;23.40;49.40
5522;BME280;2783;48.730;8.006;2023-05-11T11:31:02;99901.84;;;23.13;47.76
5522;BME280;2783;48.730;8.006;2023-05-11T11:33:34;99898.06;;;23.05;47.19
5522;BME280;2783;48.730;8.006;2023-05-11T11:35:59;99894.72;;;23.12;50.85
5522;BME280;2783;48.730;8.006;2023-05-11T11:38:25;99893.06;;;23.00;46.95
5522;BME280;2783;48.730;8.006;2023-05-11T11:40:51;99879.47;;;23.32;47.73
5522;BME280;2783;48.730;8.006;2023-05-11T11:43:17;99883.97;;;23.73;49.24
5522;BME280;2783;48.730;8.006;2023-05-11T11:48:15;99878.47;;;23.84;46.45
5522;BME280;2783;48.730;8.006;2023-05-11T11:50:45;99872.69;;;23.47;46.70
5522;BME280;2783;48.730;8.006;2023-05-11T11:53:12;99880.97;;;23.04;51.71
5522;BME280;2783;48.730;8.006;2023-05-11T11:55:45;99876.47;;;23.56;49.12
5522;BME280;2783;48.730;8.006;2023-05-11T11:58:12;99876.16;;;24.19;48.93
5522;BME280;2783;48.730;8.006;2023-05-11T12:00:37;99876.81;;;24.41;43.97
5522;BME280;2783;48.730;8.006;2023-05-11T12:03:03;99870.78;;;24.38;43.45
5522;BME280;2783;48.730;8.006;2023-05-11T12:05:29;99870.47;;;23.62;45.34
5522;BME280;2783;48.730;8.006;2023-05-11T12:07:56;99866.75;;;23.63;45.34
5522;BME280;2783;48.730;8.006;2023-05-11T12:10:22;99868.59;;;24.32;50.39
5522;BME280;2783;48.730;8.006;2023-05-11T12:12:48;99859.03;;;24.47;45.95
5522;BME280;2783;48.730;8.006;2023-05-11T12:15:24;99856.72;;;23.54;47.52
5522;BME280;2783;48.730;8.006;2023-05-11T12:17:50;99854.56;;;23.87;47.43
5522;BME280;2783;48.730;8.006;2023-05-11T12:20:16;99856.41;;;24.17;46.93
5522;BME280;2783;48.730;8.006;2023-05-11T12:22:41;99854.31;;;24.39;44.87
5522;BME280;2783;48.730;8.006;2023-05-11T12:25:08;99850.78;;;24.87;44.79
5522;BME280;2783;48.730;8.006;2023-05-11T12:27:36;99848.22;;;24.85;45.50
5522;BME280;2783;48.730;8.006;2023-05-11T12:30:17;99838.56;;;25.19;43.68
5522;BME280;2783;48.730;8.006;2023-05-11T12:32:42;99836.28;;;25.15;43.71
5522;BME280;2783;48.730;8.006;2023-05-11T12:35:08;99838.25;;;25.41;43.61
5522;BME280;2783;48.730;8.006;2023-05-11T12:37:33;99831.34;;;25.56;43.93
5522;BME280;2783;48.730;8.006;2023-05-11T12:39:58;99830.88;;;25.61;43.72
5522;BME280;2783;48.730;8.006;2023-05-11T12:42:24;99829.75;;;25.54;43.10
5522;BME280;2783;48.730;8.006;2023-05-11T12:44:50;99834.09;;;25.37;44.60
5522;BME280;2783;48.730;8.006;2023-05-11T12:47:15;99832.06;;;25.58;44.36
5522;BME280;2783;48.730;8.006;2023-05-11T12:49:41;99827.38;;;25.68;44.98
5522;BME280;2783;48.730;8.006;2023-05-11T12:52:07;99825.25;;;25.35;41.09
5522;BME280;2783;48.730;8.006;2023-05-11T12:54:38;99815.91;;;25.28;44.33
5522;BME280;2783;48.730;8.006;2023-05-11T12:57:04;99816.94;;;25.18;44.21
5522;BME280;2783;48.730;8.006;2023-05-11T13:02:15;99807.44;;;25.31;43.43
5522;BME280;2783;48.730;8.006;2023-05-11T13:04:41;99800.31;;;25.94;43.57
5522;BME280;2783;48.730;8.006;2023-05-11T13:07:07;99799.63;;;26.19;44.13
5522;BME280;2783;48.730;8.006;2023-05-11T13:09:32;99788.25;;;26.59;43.81
5522;BME280;2783;48.730;8.006;2023-05-11T13:14:38;99789.44;;;25.57;42.70
5522;BME280;2783;48.730;8.006;2023-05-11T13:17:04;99787.69;;;25.20;45.69
5522;BME280;2783;48.730;8.006;2023-05-11T13:19:30;99788.06;;;24.59;44.01
5522;BME280;2783;48.730;8.006;2023-05-11T13:21:56;99785.78;;;24.74;43.40
5522;BME280;2783;48.730;8.006;2023-05-11T13:24:22;99795.28;;;25.16;45.47
5522;BME280;2783;48.730;8.006;2023-05-11T13:26:47;99785.75;;;24.93;42.79
5522;BME280;2783;48.730;8.006;2023-05-11T13:29:13;99781.31;;;24.63;45.01
5522;BME280;2783;48.730;8.006;2023-05-11T13:31:45;99779.47;;;24.74;45.34
5522;BME280;2783;48.730;8.006;2023-05-11T13:34:10;99780.13;;;24.09;45.45
5522;BME280;2783;48.730;8.006;2023-05-11T13:36:36;99785.03;;;24.34;46.27
5522;BME280;2783;48.730;8.006;2023-05-11T13:39:01;99775.19;;;24.33;47.39
5522;BME280;2783;48.730;8.006;2023-05-11T13:41:27;99767.59;;;24.46;48.88
5522;BME280;2783;48.730;8.006;2023-05-11T13:43:52;99770.28;;;24.65;46.97
5522;BME280;2783;48.730;8.006;2023-05-11T13:46:17;99767.72;;;24.92;46.32
5522;BME280;2783;48.730;8.006;2023-05-11T13:48:42;99774.16;;;24.62;46.42
5522;BME280;2783;48.730;8.006;2023-05-11T13:51:08;99767.44;;;24.57;42.59